sensor_id;sensor_type;location;lat;lon;timestamp;P1;durP1;ratioP1;P2;durP2;ratioP2
71320;SDS011;59118;54.322;18.576;2022-11-20T00:01:20;34.73;;;12.83;;
71320;SDS011;59118;54.322;18.576;2022-11-20T00:03:50;29.77;;;11.88;;
71320;SDS011;59118;54.322;18.576;2022-11-20T00:06:17;31.67;;;12.90;;
71320;SDS011;59118;54.322;18.576;2022-11-20T00:08:45;35.92;;;14.75;;
71320;SDS011;59118;54.322;18.576;2022-11-20T00:11:15;35.13;;;14.95;;
71320;SDS011;59118;54.322;18.576;2022-11-20T00:13:45;35.47;;;13.50;;
71320;SDS011;59118;54.322;18.576;2022-11-20T00:16:19;36.72;;;14.38;;
71320;SDS011;59118;54.322;18.576;2022-11-20T00:18:48;34.88;;;13.73;;
71320;SDS011;59118;54.322;18.576;2022-11-20T00:21:17;37.47;;;14.85;;
71320;SDS011;59118;54.322;18.576;2022-11-20T00:23:49;35.78;;;14.88;;
71320;SDS011;59118;54.322;18.576;2022-11-20T00:26:17;32.93;;;14.57;;
71320;SDS011;59118;54.322;18.576;2022-11-20T00:28:52;38.30;;;14.45;;
71320;SDS011;59118;54.322;18.576;2022-11-20T00:31:22;27.23;;;11.90;;
71320;SDS011;59118;54.322;18.576;2022-11-20T00:33:49;34.08;;;14.02;;
71320;SDS011;59118;54.322;18.576;2022-11-20T00:36:19;37.60;;;14.95;;
71320;SDS011;59118;54.322;18.576;2022-11-20T00:38:57;38.23;;;14.73;;
71320;SDS011;59118;54.322;18.576;2022-11-20T00:41:26;36.28;;;13.15;;
71320;SDS011;59118;54.322;18.576;2022-11-20T00:43:54;23.08;;;11.27;;
71320;SDS011;59118;54.322;18.576;2022-11-20T00:46:22;32.65;;;13.73;;
71320;SDS011;59118;54.322;18.576;2022-11-20T00:48:52;41.58;;;15.52;;
71320;SDS011;59118;54.322;18.576;2022-11-20T00:51:21;40.77;;;15.70;;
71320;SDS011;59118;54.322;18.576;2022-11-20T00:53:56;34.22;;;14.05;;
71320;SDS011;59118;54.322;18.576;2022-11-20T00:56:26;42.15;;;15.52;;
71320;SDS011;59118;54.322;18.576;2022-11-20T00:58:54;35.55;;;14.68;;
71320;SDS011;59118;54.322;18.576;2022-11-20T01:01:22;32.88;;;13.95;;
71320;SDS011;59118;54.322;18.576;2022-11-20T01:04:00;31.93;;;12.17;;
71320;SDS011;59118;54.322;18.576;2022-11-20T01:06:40;37.20;;;14.25;;
71320;SDS011;59118;54.322;18.576;2022-11-20T01:09:13;35.38;;;13.13;;
71320;SDS011;59118;54.322;18.576;2022-11-20T01:11:41;38.42;;;14.85;;
71320;SDS011;59118;54.322;18.576;2022-11-20T01:17:05;34.90;;;13.43;;
71320;SDS011;59118;54.322;18.576;2022-11-20T01:19:35;36.35;;;13.77;;
71320;SDS011;59118;54.322;18.576;2022-11-20T01:22:02;32.63;;;13.32;;
71320;SDS011;59118;54.322;18.576;2022-11-20T01:24:31;39.58;;;15.35;;
71320;SDS011;59118;54.322;18.576;2022-11-20T01:27:03;34.38;;;13.82;;
71320;SDS011;59118;54.322;18.576;2022-11-20T01:29:31;31.17;;;12.23;;
71320;SDS011;59118;54.322;18.576;2022-11-20T01:31:58;33.83;;;13.40;;
71320;SDS011;59118;54.322;18.576;2022-11-20T01:34:26;38.83;;;14.85;;
71320;SDS011;59118;54.322;18.576;2022-11-20T01:36:52;33.42;;;13.50;;
71320;SDS011;59118;54.322;18.576;2022-11-20T01:39:20;33.50;;;13.38;;
71320;SDS011;59118;54.322;18.576;2022-11-20T01:41:50;32.97;;;12.07;;
71320;SDS011;59118;54.322;18.576;2022-11-20T01:47:30;32.75;;;12.45;;
71320;SDS011;59118;54.322;18.576;2022-11-20T01:50:03;33.47;;;12.40;;
71320;SDS011;59118;54.322;18.576;2022-11-20T01:52:37;34.10;;;12.80;;
71320;SDS011;59118;54.322;18.576;2022-11-20T01:55:15;31.53;;;13.03;;
71320;SDS011;59118;54.322;18.576;2022-11-20T01:57:45;12.15;;;7.20;;
71320;SDS011;59118;54.322;18.576;2022-11-20T02:00:14;31.88;;;11.77;;
71320;SDS011;59118;54.322;18.576;2022-11-20T02:02:49;33.58;;;12.73;;
71320;SDS011;59118;54.322;18.576;2022-11-20T02:08:22;32.90;;;12.67;;
71320;SDS011;59118;54.322;18.576;2022-11-20T02:10:49;32.97;;;12.55;;
71320;SDS011;59118;54.322;18.576;2022-11-20T02:13:16;32.30;;;12.27;;
71320;SDS011;59118;54.322;18.576;2022-11-20T02:16:05;35.20;;;12.38;;
71320;SDS011;59118;54.322;18.576;2022-11-20T02:18:38;36.95;;;13.15;;
71320;SDS011;59118;54.322;18.576;2022-11-20T02:21:08;27.70;;;12.03;;
71320;SDS011;59118;54.322;18.576;2022-11-20T02:26:59;32.63;;;12.95;;
71320;SDS011;59118;54.322;18.576;2022-11-20T02:29:40;32.33;;;13.23;;
71320;SDS011;59118;54.322;18.576;2022-11-20T02:32:20;33.42;;;12.55;;
71320;SDS011;59118;54.322;18.576;2022-11-20T02:34:54;33.57;;;11.97;;
71320;SDS011;59118;54.322;18.576;2022-11-20T02:37:22;35.20;;;14.93;;
71320;SDS011;59118;54.322;18.576;2022-11-20T02:39:51;29.27;;;10.45;;
71320;SDS011;59118;54.322;18.576;2022-11-20T02:42:30;37.00;;;13.60;;
71320;SDS011;59118;54.322;18.576;2022-11-20T02:44:58;32.17;;;12.90;;
71320;SDS011;59118;54.322;18.576;2022-11-20T02:47:33;32.37;;;11.93;;
71320;SDS011;59118;54.322;18.576;2022-11-20T02:50:04;31.17;;;13.25;;
71320;SDS011;59118;54.322;18.576;2022-11-20T02:52:31;27.63;;;12.25;;
71320;SDS011;59118;54.322;18.576;2022-11-20T02:54:58;29.45;;;11.75;;
71320;SDS011;59118;54.322;18.576;2022-11-20T02:57:33;31.50;;;12.43;;
71320;SDS011;59118;54.322;18.576;2022-11-20T03:00:02;32.10;;;12.47;;
71320;SDS011;59118;54.322;18.576;2022-11-20T03:02:31;32.45;;;13.20;;
71320;SDS011;59118;54.322;18.576;2022-11-20T03:04:59;30.63;;;11.32;;
71320;SDS011;59118;54.322;18.576;2022-11-20T03:07:25;36.95;;;13.38;;
71320;SDS011;59118;54.322;18.576;2022-11-20T03:09:54;36.03;;;13.05;;
71320;SDS011;59118;54.322;18.576;2022-11-20T03:12:21;32.67;;;12.53;;
71320;SDS011;59118;54.322;18.576;2022-11-20T03:14:50;36.13;;;13.65;;
71320;SDS011;59118;54.322;18.576;2022-11-20T03:17:20;40.65;;;13.52;;
71320;SDS011;59118;54.322;18.576;2022-11-20T03:19:47;35.20;;;13.15;;
71320;SDS011;59118;54.322;18.576;2022-11-20T03:22:13;35.45;;;13.32;;
71320;SDS011;59118;54.322;18.576;2022-11-20T03:24:45;30.07;;;12.30;;
71320;SDS011;59118;54.322;18.576;2022-11-20T03:27:12;34.05;;;14.48;;
71320;SDS011;59118;54.322;18.576;2022-11-20T03:29:38;34.78;;;13.52;;
71320;SDS011;59118;54.322;18.576;2022-11-20T03:32:05;39.35;;;14.55;;
71320;SDS011;59118;54.322;18.576;2022-11-20T03:34:33;37.13;;;14.13;;
71320;SDS011;59118;54.322;18.576;2022-11-20T03:37:04;32.43;;;13.60;;
71320;SDS011;59118;54.322;18.576;2022-11-20T03:39:32;32.80;;;12.85;;
71320;SDS011;59118;54.322;18.576;2022-11-20T03:41:58;34.45;;;13.00;;
71320;SDS011;59118;54.322;18.576;2022-11-20T03:44:26;32.15;;;13.35;;
71320;SDS011;59118;54.322;18.576;2022-11-20T03:46:55;33.75;;;13.48;;
71320;SDS011;59118;54.322;18.576;2022-11-20T03:49:25;32.00;;;13.57;;
71320;SDS011;59118;54.322;18.576;2022-11-20T03:51:53;35.17;;;13.48;;
71320;SDS011;59118;54.322;18.576;2022-11-20T03:54:20;32.78;;;13.55;;
71320;SDS011;59118;54.322;18.576;2022-11-20T03:56:46;36.15;;;13.82;;
71320;SDS011;59118;54.322;18.576;2022-11-20T03:59:13;34.28;;;13.35;;
71320;SDS011;59118;54.322;18.576;2022-11-20T04:01:42;33.73;;;13.57;;
71320;SDS011;59118;54.322;18.576;2022-11-20T04:04:14;32.70;;;12.52;;
71320;SDS011;59118;54.322;18.576;2022-11-20T04:06:43;35.63;;;14.82;;
71320;SDS011;59118;54.322;18.576;2022-11-20T04:09:12;33.22;;;13.90;;
71320;SDS011;59118;54.322;18.576;2022-11-20T04:11:45;38.40;;;15.52;;
71320;SDS011;59118;54.322;18.576;2022-11-20T04:14:12;38.37;;;16.07;;
71320;SDS011;59118;54.322;18.576;2022-11-20T04:16:40;39.67;;;14.70;;
71320;SDS011;59118;54.322;18.576;2022-11-20T04:19:12;33.60;;;13.48;;
71320;SDS011;59118;54.322;18.576;2022-11-20T04:21:41;34.35;;;13.63;;
71320;SDS011;59118;54.322;18.576;2022-11-20T04:24:08;31.23;;;12.25;;
71320;SDS011;59118;54.322;18.576;2022-11-20T04:26:36;32.43;;;12.33;;
71320;SDS011;59118;54.322;18.576;2022-11-20T04:29:03;34.17;;;12.95;;
71320;SDS011;59118;54.322;18.576;2022-11-20T04:31:45;32.53;;;13.93;;
71320;SDS011;59118;54.322;18.576;2022-11-20T04:34:12;33.50;;;14.13;;
71320;SDS011;59118;54.322;18.576;2022-11-20T04:36:39;33.47;;;13.50;;
71320;SDS011;59118;54.322;18.576;2022-11-20T04:39:05;36.57;;;14.93;;
71320;SDS011;59118;54.322;18.576;2022-11-20T04:41:33;39.17;;;13.02;;
71320;SDS011;59118;54.322;18.576;2022-11-20T04:44:01;31.15;;;11.93;;
71320;SDS011;59118;54.322;18.576;2022-11-20T04:46:30;37.95;;;14.23;;
71320;SDS011;59118;54.322;18.576;2022-11-20T04:49:01;32.70;;;13.25;;
71320;SDS011;59118;54.322;18.576;2022-11-20T04:51:30;32.13;;;14.07;;
71320;SDS011;59118;54.322;18.576;2022-11-20T04:53:58;36.13;;;14.10;;
71320;SDS011;59118;54.322;18.576;2022-11-20T04:56:27;23.83;;;10.27;;
71320;SDS011;59118;54.322;18.576;2022-11-20T04:58:55;39.28;;;13.77;;
71320;SDS011;59118;54.322;18.576;2022-11-20T05:01:22;35.60;;;12.20;;
71320;SDS011;59118;54.322;18.576;2022-11-20T05:03:51;34.17;;;13.17;;
71320;SDS011;59118;54.322;18.576;2022-11-20T05:06:21;38.05;;;12.88;;
71320;SDS011;59118;54.322;18.576;2022-11-20T05:08:48;36.20;;;12.30;;
71320;SDS011;59118;54.322;18.576;2022-11-20T05:11:22;34.60;;;14.07;;
71320;SDS011;59118;54.322;18.576;2022-11-20T05:13:51;33.58;;;12.40;;
71320;SDS011;59118;54.322;18.576;2022-11-20T05:16:21;33.60;;;12.77;;
71320;SDS011;59118;54.322;18.576;2022-11-20T05:18:58;27.45;;;10.45;;
71320;SDS011;59118;54.322;18.576;2022-11-20T05:21:24;33.80;;;13.63;;
71320;SDS011;59118;54.322;18.576;2022-11-20T05:23:53;39.25;;;13.82;;
71320;SDS011;59118;54.322;18.576;2022-11-20T05:26:21;38.75;;;12.80;;
71320;SDS011;59118;54.322;18.576;2022-11-20T05:28:51;36.80;;;13.53;;
71320;SDS011;59118;54.322;18.576;2022-11-20T05:31:19;38.25;;;14.63;;
71320;SDS011;59118;54.322;18.576;2022-11-20T05:33:55;37.85;;;13.73;;
71320;SDS011;59118;54.322;18.576;2022-11-20T05:36:23;43.97;;;14.60;;
71320;SDS011;59118;54.322;18.576;2022-11-20T05:38:49;41.78;;;14.68;;
71320;SDS011;59118;54.322;18.576;2022-11-20T05:41:22;37.97;;;13.60;;
71320;SDS011;59118;54.322;18.576;2022-11-20T05:43:50;38.60;;;14.18;;
71320;SDS011;59118;54.322;18.576;2022-11-20T05:46:18;37.47;;;13.35;;
71320;SDS011;59118;54.322;18.576;2022-11-20T05:48:57;39.20;;;13.32;;
71320;SDS011;59118;54.322;18.576;2022-11-20T05:51:29;37.55;;;14.07;;
71320;SDS011;59118;54.322;18.576;2022-11-20T05:53:56;38.53;;;13.60;;
71320;SDS011;59118;54.322;18.576;2022-11-20T05:56:24;42.03;;;14.43;;
71320;SDS011;59118;54.322;18.576;2022-11-20T05:58:51;37.65;;;13.82;;
71320;SDS011;59118;54.322;18.576;2022-11-20T06:01:21;37.80;;;14.10;;
71320;SDS011;59118;54.322;18.576;2022-11-20T06:03:49;33.00;;;12.00;;
71320;SDS011;59118;54.322;18.576;2022-11-20T06:06:17;39.63;;;13.93;;
71320;SDS011;59118;54.322;18.576;2022-11-20T06:08:44;41.28;;;14.65;;
71320;SDS011;59118;54.322;18.576;2022-11-20T06:11:29;38.47;;;13.07;;
71320;SDS011;59118;54.322;18.576;2022-11-20T06:13:56;42.38;;;14.57;;
71320;SDS011;59118;54.322;18.576;2022-11-20T06:16:23;35.72;;;13.82;;
71320;SDS011;59118;54.322;18.576;2022-11-20T06:18:49;41.13;;;14.97;;
71320;SDS011;59118;54.322;18.576;2022-11-20T06:21:18;41.40;;;14.98;;
71320;SDS011;59118;54.322;18.576;2022-11-20T06:23:49;40.38;;;15.40;;
71320;SDS011;59118;54.322;18.576;2022-11-20T06:26:24;39.45;;;12.82;;
71320;SDS011;59118;54.322;18.576;2022-11-20T06:28:53;38.13;;;13.02;;
71320;SDS011;59118;54.322;18.576;2022-11-20T06:31:24;44.30;;;14.70;;
71320;SDS011;59118;54.322;18.576;2022-11-20T06:33:51;44.00;;;14.35;;
71320;SDS011;59118;54.322;18.576;2022-11-20T06:36:19;37.53;;;14.57;;
71320;SDS011;59118;54.322;18.576;2022-11-20T06:38:50;45.30;;;15.77;;
71320;SDS011;59118;54.322;18.576;2022-11-20T06:41:18;39.30;;;14.48;;
71320;SDS011;59118;54.322;18.576;2022-11-20T06:43:46;43.10;;;14.43;;
71320;SDS011;59118;54.322;18.576;2022-11-20T06:46:14;47.03;;;15.75;;
71320;SDS011;59118;54.322;18.576;2022-11-20T06:48:44;46.05;;;15.88;;
71320;SDS011;59118;54.322;18.576;2022-11-20T06:51:11;43.60;;;15.68;;
71320;SDS011;59118;54.322;18.576;2022-11-20T06:53:38;44.28;;;14.77;;
71320;SDS011;59118;54.322;18.576;2022-11-20T06:56:11;44.40;;;14.40;;
71320;SDS011;59118;54.322;18.576;2022-11-20T06:58:39;47.67;;;15.93;;
71320;SDS011;59118;54.322;18.576;2022-11-20T07:01:09;40.03;;;14.13;;
71320;SDS011;59118;54.322;18.576;2022-11-20T07:03:38;45.50;;;16.10;;
71320;SDS011;59118;54.322;18.576;2022-11-20T07:06:12;40.65;;;14.80;;
71320;SDS011;59118;54.322;18.576;2022-11-20T07:08:38;44.40;;;15.70;;
71320;SDS011;59118;54.322;18.576;2022-11-20T07:11:05;45.55;;;15.35;;
71320;SDS011;59118;54.322;18.576;2022-11-20T07:13:33;45.42;;;14.32;;
71320;SDS011;59118;54.322;18.576;2022-11-20T07:16:03;44.65;;;14.95;;
71320;SDS011;59118;54.322;18.576;2022-11-20T07:18:32;44.40;;;14.68;;
71320;SDS011;59118;54.322;18.576;2022-11-20T07:21:02;46.77;;;15.87;;
71320;SDS011;59118;54.322;18.576;2022-11-20T07:23:31;52.13;;;16.02;;
71320;SDS011;59118;54.322;18.576;2022-11-20T07:26:02;41.50;;;15.07;;
71320;SDS011;59118;54.322;18.576;2022-11-20T07:28:35;41.80;;;15.15;;
71320;SDS011;59118;54.322;18.576;2022-11-20T07:31:02;46.08;;;15.02;;
71320;SDS011;59118;54.322;18.576;2022-11-20T07:33:33;44.33;;;16.03;;
71320;SDS011;59118;54.322;18.576;2022-11-20T07:36:01;48.70;;;17.17;;
71320;SDS011;59118;54.322;18.576;2022-11-20T07:38:37;50.42;;;18.23;;
71320;SDS011;59118;54.322;18.576;2022-11-20T07:41:14;49.72;;;16.48;;
71320;SDS011;59118;54.322;18.576;2022-11-20T07:43:41;51.60;;;17.33;;
71320;SDS011;59118;54.322;18.576;2022-11-20T07:46:07;49.47;;;16.37;;
71320;SDS011;59118;54.322;18.576;2022-11-20T07:48:34;47.42;;;17.67;;
71320;SDS011;59118;54.322;18.576;2022-11-20T07:51:01;42.88;;;15.82;;
71320;SDS011;59118;54.322;18.576;2022-11-20T07:56:50;48.15;;;15.38;;
71320;SDS011;59118;54.322;18.576;2022-11-20T07:59:25;48.53;;;16.40;;
71320;SDS011;59118;54.322;18.576;2022-11-20T08:01:53;48.97;;;15.50;;
71320;SDS011;59118;54.322;18.576;2022-11-20T08:04:23;45.80;;;16.15;;
71320;SDS011;59118;54.322;18.576;2022-11-20T08:06:53;49.55;;;17.02;;
71320;SDS011;59118;54.322;18.576;2022-11-20T08:09:19;52.25;;;16.35;;
71320;SDS011;59118;54.322;18.576;2022-11-20T08:11:46;51.60;;;16.67;;
71320;SDS011;59118;54.322;18.576;2022-11-20T08:14:31;46.85;;;15.95;;
71320;SDS011;59118;54.322;18.576;2022-11-20T08:16:59;49.55;;;16.33;;
71320;SDS011;59118;54.322;18.576;2022-11-20T08:19:27;48.08;;;16.38;;
71320;SDS011;59118;54.322;18.576;2022-11-20T08:21:54;49.95;;;16.42;;
71320;SDS011;59118;54.322;18.576;2022-11-20T08:24:21;50.03;;;16.83;;
71320;SDS011;59118;54.322;18.576;2022-11-20T08:26:49;44.97;;;15.07;;
71320;SDS011;59118;54.322;18.576;2022-11-20T08:29:15;48.80;;;17.27;;
71320;SDS011;59118;54.322;18.576;2022-11-20T08:31:43;49.10;;;16.20;;
71320;SDS011;59118;54.322;18.576;2022-11-20T08:34:16;44.75;;;15.27;;
71320;SDS011;59118;54.322;18.576;2022-11-20T08:36:47;41.20;;;13.60;;
71320;SDS011;59118;54.322;18.576;2022-11-20T08:39:13;44.70;;;14.07;;
71320;SDS011;59118;54.322;18.576;2022-11-20T08:41:40;44.97;;;15.05;;
71320;SDS011;59118;54.322;18.576;2022-11-20T08:44:07;47.05;;;14.57;;
71320;SDS011;59118;54.322;18.576;2022-11-20T08:46:35;45.50;;;14.02;;
71320;SDS011;59118;54.322;18.576;2022-11-20T08:49:06;52.43;;;15.70;;
71320;SDS011;59118;54.322;18.576;2022-11-20T08:51:35;49.55;;;15.77;;
71320;SDS011;59118;54.322;18.576;2022-11-20T08:54:03;48.70;;;17.33;;
71320;SDS011;59118;54.322;18.576;2022-11-20T08:56:35;54.78;;;15.75;;
71320;SDS011;59118;54.322;18.576;2022-11-20T08:59:02;45.50;;;15.15;;
71320;SDS011;59118;54.322;18.576;2022-11-20T09:01:52;57.53;;;18.27;;
71320;SDS011;59118;54.322;18.576;2022-11-20T09:04:19;52.95;;;16.92;;
71320;SDS011;59118;54.322;18.576;2022-11-20T09:06:46;54.35;;;18.02;;
71320;SDS011;59118;54.322;18.576;2022-11-20T09:12:30;58.15;;;17.80;;
71320;SDS011;59118;54.322;18.576;2022-11-20T09:15:03;54.40;;;18.27;;
71320;SDS011;59118;54.322;18.576;2022-11-20T09:17:33;61.50;;;18.80;;
71320;SDS011;59118;54.322;18.576;2022-11-20T09:20:01;57.72;;;17.98;;
71320;SDS011;59118;54.322;18.576;2022-11-20T09:22:29;59.05;;;18.98;;
71320;SDS011;59118;54.322;18.576;2022-11-20T09:24:56;55.90;;;18.50;;
71320;SDS011;59118;54.322;18.576;2022-11-20T09:27:22;52.50;;;18.33;;
71320;SDS011;59118;54.322;18.576;2022-11-20T09:29:50;59.03;;;19.00;;
71320;SDS011;59118;54.322;18.576;2022-11-20T09:32:16;53.53;;;17.42;;
71320;SDS011;59118;54.322;18.576;2022-11-20T09:34:48;58.83;;;18.83;;
71320;SDS011;59118;54.322;18.576;2022-11-20T09:37:15;57.95;;;19.65;;
71320;SDS011;59118;54.322;18.576;2022-11-20T09:40:06;54.63;;;18.73;;
71320;SDS011;59118;54.322;18.576;2022-11-20T09:43:40;49.85;;;17.45;;
71320;SDS011;59118;54.322;18.576;2022-11-20T09:51:54;60.60;;;20.20;;
71320;SDS011;59118;54.322;18.576;2022-11-20T09:54:29;64.53;;;20.83;;
71320;SDS011;59118;54.322;18.576;2022-11-20T09:56:59;54.55;;;19.95;;
71320;SDS011;59118;54.322;18.576;2022-11-20T10:02:00;62.05;;;18.65;;
71320;SDS011;59118;54.322;18.576;2022-11-20T10:04:31;70.88;;;20.73;;
71320;SDS011;59118;54.322;18.576;2022-11-20T10:09:54;67.78;;;20.83;;
71320;SDS011;59118;54.322;18.576;2022-11-20T10:15:21;22.58;;;8.30;;
71320;SDS011;59118;54.322;18.576;2022-11-20T10:18:22;38.42;;;15.30;;
71320;SDS011;59118;54.322;18.576;2022-11-20T10:21:08;64.70;;;20.53;;
71320;SDS011;59118;54.322;18.576;2022-11-20T10:26:55;65.05;;;21.08;;
71320;SDS011;59118;54.322;18.576;2022-11-20T10:29:34;58.13;;;18.75;;
71320;SDS011;59118;54.322;18.576;2022-11-20T10:32:27;65.93;;;21.70;;
71320;SDS011;59118;54.322;18.576;2022-11-20T10:34:59;52.03;;;18.80;;
71320;SDS011;59118;54.322;18.576;2022-11-20T10:37:29;74.32;;;24.05;;
71320;SDS011;59118;54.322;18.576;2022-11-20T10:42:56;67.65;;;19.55;;
71320;SDS011;59118;54.322;18.576;2022-11-20T10:48:23;77.30;;;23.90;;
71320;SDS011;59118;54.322;18.576;2022-11-20T10:50:54;66.47;;;21.58;;
71320;SDS011;59118;54.322;18.576;2022-11-20T10:56:30;70.75;;;20.67;;
71320;SDS011;59118;54.322;18.576;2022-11-20T11:02:00;64.67;;;21.13;;
71320;SDS011;59118;54.322;18.576;2022-11-20T11:04:47;62.85;;;19.85;;
71320;SDS011;59118;54.322;18.576;2022-11-20T11:07:23;72.97;;;21.52;;
71320;SDS011;59118;54.322;18.576;2022-11-20T11:09:55;64.97;;;20.95;;
71320;SDS011;59118;54.322;18.576;2022-11-20T11:12:25;65.68;;;22.02;;
71320;SDS011;59118;54.322;18.576;2022-11-20T11:14:55;68.33;;;23.03;;
71320;SDS011;59118;54.322;18.576;2022-11-20T11:17:33;64.22;;;21.25;;
71320;SDS011;59118;54.322;18.576;2022-11-20T11:20:03;65.35;;;22.38;;
71320;SDS011;59118;54.322;18.576;2022-11-20T11:22:34;68.80;;;22.90;;
71320;SDS011;59118;54.322;18.576;2022-11-20T11:25:07;63.80;;;22.15;;
71320;SDS011;59118;54.322;18.576;2022-11-20T11:27:48;68.67;;;23.40;;
71320;SDS011;59118;54.322;18.576;2022-11-20T11:30:17;64.68;;;21.90;;
71320;SDS011;59118;54.322;18.576;2022-11-20T11:32:45;64.28;;;22.35;;
71320;SDS011;59118;54.322;18.576;2022-11-20T11:35:22;39.58;;;14.30;;
71320;SDS011;59118;54.322;18.576;2022-11-20T11:38:30;60.95;;;22.38;;
71320;SDS011;59118;54.322;18.576;2022-11-20T11:41:04;70.60;;;22.93;;
71320;SDS011;59118;54.322;18.576;2022-11-20T11:43:35;58.65;;;19.95;;
71320;SDS011;59118;54.322;18.576;2022-11-20T11:46:35;63.00;;;21.95;;
71320;SDS011;59118;54.322;18.576;2022-11-20T11:49:18;59.28;;;20.50;;
71320;SDS011;59118;54.322;18.576;2022-11-20T12:00:06;64.88;;;21.13;;
71320;SDS011;59118;54.322;18.576;2022-11-20T12:05:19;64.95;;;22.33;;
71320;SDS011;59118;54.322;18.576;2022-11-20T12:16:02;62.72;;;21.15;;
71320;SDS011;59118;54.322;18.576;2022-11-20T12:18:30;67.15;;;22.60;;
71320;SDS011;59118;54.322;18.576;2022-11-20T12:23:41;45.20;;;17.38;;
71320;SDS011;59118;54.322;18.576;2022-11-20T12:26:19;63.55;;;22.05;;
71320;SDS011;59118;54.322;18.576;2022-11-20T12:29:00;58.70;;;19.70;;
71320;SDS011;59118;54.322;18.576;2022-11-20T12:31:52;62.15;;;21.40;;
71320;SDS011;59118;54.322;18.576;2022-11-20T12:34:38;63.13;;;21.90;;
71320;SDS011;59118;54.322;18.576;2022-11-20T12:40:11;72.03;;;25.33;;
71320;SDS011;59118;54.322;18.576;2022-11-20T12:55:09;42.08;;;15.85;;
71320;SDS011;59118;54.322;18.576;2022-11-20T12:57:56;57.67;;;19.30;;
71320;SDS011;59118;54.322;18.576;2022-11-20T13:00:24;61.97;;;20.80;;
71320;SDS011;59118;54.322;18.576;2022-11-20T13:08:25;48.95;;;17.83;;
71320;SDS011;59118;54.322;18.576;2022-11-20T13:10:56;64.30;;;21.88;;
71320;SDS011;59118;54.322;18.576;2022-11-20T13:13:34;65.68;;;22.33;;
71320;SDS011;59118;54.322;18.576;2022-11-20T13:16:08;60.17;;;20.27;;
71320;SDS011;59118;54.322;18.576;2022-11-20T13:18:42;59.60;;;20.70;;
71320;SDS011;59118;54.322;18.576;2022-11-20T13:21:15;41.15;;;17.70;;
71320;SDS011;59118;54.322;18.576;2022-11-20T13:23:47;36.60;;;14.15;;
71320;SDS011;59118;54.322;18.576;2022-11-20T13:26:24;62.65;;;20.42;;
71320;SDS011;59118;54.322;18.576;2022-11-20T13:29:02;61.70;;;20.10;;
71320;SDS011;59118;54.322;18.576;2022-11-20T13:31:34;48.47;;;20.80;;
71320;SDS011;59118;54.322;18.576;2022-11-20T13:34:03;49.33;;;17.17;;
71320;SDS011;59118;54.322;18.576;2022-11-20T13:36:30;64.43;;;20.88;;
71320;SDS011;59118;54.322;18.576;2022-11-20T13:38:59;66.85;;;22.63;;
71320;SDS011;59118;54.322;18.576;2022-11-20T13:41:33;67.47;;;21.37;;
71320;SDS011;59118;54.322;18.576;2022-11-20T13:44:05;58.83;;;19.85;;
71320;SDS011;59118;54.322;18.576;2022-11-20T13:46:44;63.28;;;23.05;;
71320;SDS011;59118;54.322;18.576;2022-11-20T13:51:49;59.78;;;20.58;;
71320;SDS011;59118;54.322;18.576;2022-11-20T13:54:22;64.07;;;21.67;;
71320;SDS011;59118;54.322;18.576;2022-11-20T14:00:14;60.08;;;20.60;;
71320;SDS011;59118;54.322;18.576;2022-11-20T14:02:43;65.38;;;21.67;;
71320;SDS011;59118;54.322;18.576;2022-11-20T14:05:17;65.35;;;23.25;;
71320;SDS011;59118;54.322;18.576;2022-11-20T14:07:49;62.43;;;22.53;;
71320;SDS011;59118;54.322;18.576;2022-11-20T14:10:22;65.72;;;23.63;;
71320;SDS011;59118;54.322;18.576;2022-11-20T14:12:57;59.63;;;21.50;;
71320;SDS011;59118;54.322;18.576;2022-11-20T14:15:25;70.38;;;24.05;;
71320;SDS011;59118;54.322;18.576;2022-11-20T14:18:14;63.25;;;21.75;;
71320;SDS011;59118;54.322;18.576;2022-11-20T14:20:46;62.03;;;23.17;;
71320;SDS011;59118;54.322;18.576;2022-11-20T14:23:22;47.08;;;17.45;;
71320;SDS011;59118;54.322;18.576;2022-11-20T14:25:55;47.08;;;18.40;;
71320;SDS011;59118;54.322;18.576;2022-11-20T14:28:24;71.45;;;24.85;;
71320;SDS011;59118;54.322;18.576;2022-11-20T14:30:53;31.92;;;11.23;;
71320;SDS011;59118;54.322;18.576;2022-11-20T14:33:21;71.80;;;25.27;;
71320;SDS011;59118;54.322;18.576;2022-11-20T14:35:52;71.68;;;23.20;;
71320;SDS011;59118;54.322;18.576;2022-11-20T14:38:22;58.15;;;21.90;;
71320;SDS011;59118;54.322;18.576;2022-11-20T14:40:53;74.15;;;24.58;;
71320;SDS011;59118;54.322;18.576;2022-11-20T14:43:21;32.63;;;13.80;;
71320;SDS011;59118;54.322;18.576;2022-11-20T14:45:59;71.40;;;24.50;;
71320;SDS011;59118;54.322;18.576;2022-11-20T14:48:32;69.93;;;24.17;;
71320;SDS011;59118;54.322;18.576;2022-11-20T14:51:02;71.85;;;24.48;;
71320;SDS011;59118;54.322;18.576;2022-11-20T14:53:29;61.08;;;21.52;;
71320;SDS011;59118;54.322;18.576;2022-11-20T14:55:57;70.88;;;23.63;;
71320;SDS011;59118;54.322;18.576;2022-11-20T14:58:28;50.60;;;18.40;;
71320;SDS011;59118;54.322;18.576;2022-11-20T15:01:00;69.63;;;25.23;;
71320;SDS011;59118;54.322;18.576;2022-11-20T15:03:35;80.47;;;26.23;;
71320;SDS011;59118;54.322;18.576;2022-11-20T15:06:06;64.43;;;23.13;;
71320;SDS011;59118;54.322;18.576;2022-11-20T15:08:34;64.97;;;23.90;;
71320;SDS011;59118;54.322;18.576;2022-11-20T15:11:00;61.23;;;22.53;;
71320;SDS011;59118;54.322;18.576;2022-11-20T15:15:59;67.30;;;23.63;;
71320;SDS011;59118;54.322;18.576;2022-11-20T15:18:28;68.88;;;25.10;;
71320;SDS011;59118;54.322;18.576;2022-11-20T15:20:55;64.28;;;22.17;;
71320;SDS011;59118;54.322;18.576;2022-11-20T15:23:23;57.80;;;20.60;;
71320;SDS011;59118;54.322;18.576;2022-11-20T15:25:50;57.97;;;21.05;;
71320;SDS011;59118;54.322;18.576;2022-11-20T15:31:03;43.10;;;20.13;;
71320;SDS011;59118;54.322;18.576;2022-11-20T15:33:31;72.15;;;25.40;;
71320;SDS011;59118;54.322;18.576;2022-11-20T15:35:59;43.73;;;17.50;;
71320;SDS011;59118;54.322;18.576;2022-11-20T15:38:25;76.93;;;27.45;;
71320;SDS011;59118;54.322;18.576;2022-11-20T15:40:52;50.83;;;19.10;;
71320;SDS011;59118;54.322;18.576;2022-11-20T15:43:18;77.68;;;25.95;;
71320;SDS011;59118;54.322;18.576;2022-11-20T15:45:47;48.33;;;18.52;;
71320;SDS011;59118;54.322;18.576;2022-11-20T15:48:18;75.57;;;26.73;;
71320;SDS011;59118;54.322;18.576;2022-11-20T15:50:57;82.03;;;25.52;;
71320;SDS011;59118;54.322;18.576;2022-11-20T15:53:27;63.97;;;21.73;;
71320;SDS011;59118;54.322;18.576;2022-11-20T15:55:54;78.18;;;25.50;;
71320;SDS011;59118;54.322;18.576;2022-11-20T15:58:20;69.35;;;24.45;;
71320;SDS011;59118;54.322;18.576;2022-11-20T16:00:50;69.37;;;22.83;;
71320;SDS011;59118;54.322;18.576;2022-11-20T16:03:17;67.30;;;24.55;;
71320;SDS011;59118;54.322;18.576;2022-11-20T16:05:45;88.68;;;30.35;;
71320;SDS011;59118;54.322;18.576;2022-11-20T16:08:11;89.75;;;30.55;;
71320;SDS011;59118;54.322;18.576;2022-11-20T16:10:38;101.63;;;31.35;;
71320;SDS011;59118;54.322;18.576;2022-11-20T16:13:10;73.47;;;24.53;;